FAPP

Polokwane International Airport

Potgietersrus, South Africa
METAR FAPP 150300Z 17003KT 8000 NSC 12/03 Q1024 NOSIG
Observed Flight Rules
Aug-15 @ 03:00 UTC (37 minutes ago) Marginal Visual Flight Rules
Wind Visibility Clouds
170° at 3 knots 7,998 meters
  • Clear skies
Temperatures Readings
Current 12°C / 54°F
Dewpoint 3°C / 37°F
Humidity 54%
Altimeter 30.24" Hg
Pressure 1024 hPa
Elevation 1242
METAR FAPP 150300Z 17003KT 8000 NSC 12/03 Q1024 NOSIG
Observed Flight Rules
Aug-15 @ 03:00 UTC
(37 minutes ago)
MVFR
Wind Visibility
170° at 3 knots 7,998 meters
Clouds
  • Clear skies
Temperature Dewpoint
12°C / 54°F 3°C / 37°F
Humidity Altimeter Pressure
54% 30.24" Hg 1024 hPa